Time;durP1;ratioP1;P1;durP2;ratioP2;P2;SDS_P1;SDS_P2;PMS_P1;PMS_P2;Temp;Humidity;BMP_temperature;BMP_pressure;BME280_temperature;BME280_humidity;BME280_pressure;Samples;Min_cycle;Max_cycle;Signal;HPM_P1;HPM_P2
2023/12/27 00:00:04;;;;;;;12.60;2.70;;;;;;;4.77;89.87;101346.50;7394024;19;20372;-62
2023/12/27 00:02:31;;;;;;;7.07;2.28;;;;;;;4.75;89.60;101348.41;7394172;19;20717;-61
2023/12/27 00:04:58;;;;;;;13.20;2.88;;;;;;;4.76;89.62;101347.47;7393973;19;20373;-60
2023/12/27 00:07:25;;;;;;;14.63;2.58;;;;;;;4.75;89.62;101348.41;7395836;19;20674;-61
2023/12/27 00:09:51;;;;;;;12.23;2.95;;;;;;;4.73;89.22;101354.75;7393642;19;20425;-58
2023/12/27 00:12:18;;;;;;;13.17;2.50;;;;;;;4.67;89.56;101361.31;7394782;19;20458;-61
2023/12/27 00:14:45;;;;;;;15.90;3.30;;;;;;;4.62;89.63;101353.81;7392225;19;20368;-60
2023/12/27 00:17:12;;;;;;;9.80;2.53;;;;;;;4.61;89.45;101354.78;7393084;19;20435;-60
2023/12/27 00:19:39;;;;;;;11.57;2.63;;;;;;;4.58;89.74;101360.25;7393441;19;20432;-60
2023/12/27 00:22:06;;;;;;;11.63;2.75;;;;;;;4.57;89.48;101365.63;7394117;19;20423;-61
2023/12/27 00:24:32;;;;;;;10.70;2.90;;;;;;;4.54;89.81;101355.38;7395443;19;20360;-62
2023/12/27 00:26:59;;;;;;;12.40;3.20;;;;;;;4.51;89.45;101353.81;7396081;19;20356;-61
2023/12/27 00:29:26;;;;;;;11.67;2.77;;;;;;;4.45;89.79;101359.53;7393217;19;20340;-61
2023/12/27 00:31:54;;;;;;;12.95;2.85;;;;;;;4.43;89.83;101369.34;7392880;19;20412;-59
2023/12/27 00:34:21;;;;;;;13.18;2.70;;;;;;;4.36;90.35;101358.47;7391018;19;20975;-62
2023/12/27 00:36:48;;;;;;;11.40;2.83;;;;;;;4.33;90.38;101379.69;7394179;19;20383;-59
2023/12/27 00:39:16;;;;;;;11.10;2.90;;;;;;;4.29;90.82;101378.25;7393501;19;20380;-60
2023/12/27 00:41:43;;;;;;;12.20;2.63;;;;;;;4.26;90.77;101373.25;7393658;19;20357;-61
2023/12/27 00:44:11;;;;;;;11.27;2.40;;;;;;;4.23;90.90;101368.22;7391939;19;21098;-59
2023/12/27 00:46:38;;;;;;;13.60;2.90;;;;;;;4.21;91.23;101380.66;7394333;19;20344;-60
2023/12/27 00:49:05;;;;;;;15.05;3.10;;;;;;;4.18;90.97;101376.44;7394258;19;20364;-60
2023/12/27 00:51:32;;;;;;;13.48;2.88;;;;;;;4.17;91.20;101368.72;7395092;19;20357;-61
2023/12/27 00:53:59;;;;;;;11.95;2.80;;;;;;;4.14;91.48;101380.25;7390380;19;20974;-61
2023/12/27 00:56:27;;;;;;;12.60;3.00;;;;;;;4.14;91.31;101379.44;7394465;19;20368;-60
2023/12/27 00:58:54;;;;;;;13.25;3.47;;;;;;;4.12;91.43;101384.78;7392502;19;20887;-60
2023/12/27 01:01:20;;;;;;;12.13;2.97;;;;;;;4.12;91.43;101386.59;7390808;19;20400;-61
2023/12/27 01:03:47;;;;;;;11.32;2.60;;;;;;;4.11;91.27;101390.19;7392943;19;20377;-61
2023/12/27 01:06:14;;;;;;;13.73;2.55;;;;;;;4.07;91.36;101395.66;7394291;19;20832;-59
2023/12/27 01:08:41;;;;;;;13.65;3.20;;;;;;;4.07;91.10;101411.41;7393518;19;20400;-59
2023/12/27 01:11:08;;;;;;;12.43;2.70;;;;;;;4.03;91.28;101409.13;7389282;19;20886;-61
2023/12/27 01:13:35;;;;;;;12.00;2.88;;;;;;;4.04;90.89;101410.81;7391700;19;20746;-59
2023/12/27 01:16:02;;;;;;;13.63;3.40;;;;;;;4.01;91.34;101421.53;7391598;19;20716;-62
2023/12/27 01:18:29;;;;;;;11.27;2.88;;;;;;;3.96;91.00;101421.03;7392399;19;20746;-62
2023/12/27 01:20:56;;;;;;;9.30;2.75;;;;;;;3.92;91.14;101425.66;7392144;19;20404;-61
2023/12/27 01:23:23;;;;;;;12.35;2.97;;;;;;;3.90;91.12;101430.19;7393746;19;20396;-61
2023/12/27 01:25:50;;;;;;;12.93;3.08;;;;;;;3.85;90.99;101425.28;7392423;19;20858;-62
2023/12/27 01:28:17;;;;;;;11.18;2.80;;;;;;;3.83;91.15;101434.25;7389456;19;20341;-61
2023/12/27 01:30:43;;;;;;;11.35;2.50;;;;;;;3.78;91.33;101436.34;7390136;19;20381;-61
2023/12/27 01:33:10;;;;;;;10.60;2.55;;;;;;;3.74;91.39;101437.50;7392379;19;20332;-60
2023/12/27 01:35:38;;;;;;;12.48;2.90;;;;;;;3.69;91.21;101445.72;7393334;19;20371;-61
2023/12/27 01:38:04;;;;;;;11.75;2.55;;;;;;;3.66;91.37;101448.59;7391599;19;20372;-62
2023/12/27 01:40:31;;;;;;;12.63;2.65;;;;;;;3.62;91.72;101442.72;7391123;19;20456;-60
2023/12/27 01:42:59;;;;;;;11.13;2.75;;;;;;;3.58;91.80;101441.25;7392205;19;20369;-60
2023/12/27 01:45:26;;;;;;;11.50;2.88;;;;;;;3.54;91.94;101439.81;7388346;19;20366;-60
2023/12/27 01:47:52;;;;;;;11.85;2.80;;;;;;;3.52;92.03;101446.94;7388941;19;20377;-61
2023/12/27 01:50:20;;;;;;;14.02;2.53;;;;;;;3.49;91.84;101447.19;7390829;19;20364;-58
2023/12/27 01:52:47;;;;;;;12.75;2.53;;;;;;;3.47;91.84;101449.09;7392207;19;20392;-59
2023/12/27 01:55:15;;;;;;;12.43;2.50;;;;;;;3.44;91.98;101452.75;7390642;19;20934;-59
2023/12/27 01:57:42;;;;;;;13.57;2.85;;;;;;;3.41;92.12;101460.84;7391254;19;20360;-59
2023/12/27 02:00:10;;;;;;;13.45;2.50;;;;;;;3.41;92.00;101465.25;7389318;19;20368;-61
2023/12/27 02:02:39;;;;;;;12.73;2.60;;;;;;;3.37;92.47;101466.41;7390440;19;20373;-59
2023/12/27 02:05:07;;;;;;;11.63;2.55;;;;;;;3.35;92.41;101461.28;7389367;19;20392;-60
2023/12/27 02:07:35;;;;;;;11.52;2.22;;;;;;;3.32;92.50;101451.00;7389382;19;20402;-59
2023/12/27 02:10:03;;;;;;;12.43;2.75;;;;;;;3.31;92.56;101448.50;7388690;19;20348;-60
2023/12/27 02:12:30;;;;;;;11.43;2.88;;;;;;;3.31;92.34;101448.50;7388982;19;20373;-60
2023/12/27 02:14:57;;;;;;;12.10;2.67;;;;;;;3.29;92.53;101438.09;7387351;19;20443;-60
2023/12/27 02:17:26;;;;;;;13.63;2.80;;;;;;;3.26;92.39;101447.03;7391783;19;20376;-61
2023/12/27 02:19:55;;;;;;;13.43;2.67;;;;;;;3.23;92.50;101442.00;7387278;19;20397;-59
2023/12/27 02:22:24;;;;;;;12.02;2.70;;;;;;;3.22;92.37;101442.13;7390196;19;21072;-60
2023/12/27 02:24:51;;;;;;;11.13;2.30;;;;;;;3.19;92.30;101432.69;7388595;19;20364;-59
2023/12/27 02:27:18;;;;;;;10.27;2.50;;;;;;;3.16;92.30;101432.91;7389735;19;20365;-59
2023/12/27 02:29:45;;;;;;;9.48;2.80;;;;;;;3.14;92.55;101429.53;7390605;19;21294;-59
2023/12/27 02:32:13;;;;;;;13.05;2.60;;;;;;;3.11;92.32;101432.41;7391472;19;20920;-60
2023/12/27 02:34:40;;;;;;;12.37;2.80;;;;;;;3.07;92.31;101430.94;7394669;19;20414;-58
2023/12/27 02:37:07;;;;;;;11.53;2.87;;;;;;;3.03;92.37;101424.22;7398162;19;20446;-61
2023/12/27 02:39:33;;;;;;;11.75;2.58;;;;;;;3.01;92.80;101420.88;7396177;19;20352;-60
2023/12/27 02:42:00;;;;;;;11.65;2.42;;;;;;;2.99;92.88;101422.75;7396630;19;20340;-59
2023/12/27 02:44:27;;;;;;;11.25;2.70;;;;;;;2.96;92.72;101428.25;7397407;19;20357;-58
2023/12/27 02:46:54;;;;;;;10.30;2.92;;;;;;;2.91;92.50;101430.31;7396654;19;20891;-59
2023/12/27 02:49:21;;;;;;;9.52;2.58;;;;;;;2.87;92.58;101421.84;7394506;19;20891;-57
2023/12/27 02:51:48;;;;;;;14.85;2.97;;;;;;;2.83;92.81;101413.38;7395961;19;20359;-60
2023/12/27 02:54:15;;;;;;;11.30;2.43;;;;;;;2.81;92.69;101415.25;7396379;19;20433;-58
2023/12/27 02:56:42;;;;;;;11.20;2.88;;;;;;;2.76;92.60;101411.25;7398002;19;20376;-60
2023/12/27 02:59:09;;;;;;;7.80;2.27;;;;;;;2.71;92.67;101419.44;7394614;19;20387;-59
2023/12/27 03:01:36;;;;;;;12.20;2.70;;;;;;;2.65;93.00;101420.69;7395332;19;20369;-58
2023/12/27 03:04:03;;;;;;;12.82;3.08;;;;;;;2.61;93.08;101423.63;7395462;19;20336;-60
2023/12/27 03:06:30;;;;;;;14.18;2.88;;;;;;;2.59;93.47;101430.75;7396969;19;20384;-59
2023/12/27 03:08:57;;;;;;;14.55;2.88;;;;;;;2.57;93.65;101417.78;7396501;19;20368;-59
2023/12/27 03:11:23;;;;;;;12.25;2.53;;;;;;;2.55;93.80;101427.53;7396586;19;20364;-61
2023/12/27 03:13:50;;;;;;;15.15;3.17;;;;;;;2.53;93.58;101418.94;7397913;19;20377;-61
2023/12/27 03:16:19;;;;;;;10.73;2.42;;;;;;;2.53;93.96;101421.56;7394897;19;20364;-61
2023/12/27 03:18:46;;;;;;;21.27;3.63;;;;;;;2.52;94.40;101422.50;7394247;19;20391;-61
2023/12/27 03:21:13;;;;;;;15.40;2.83;;;;;;;2.55;94.21;101418.81;7395956;19;20946;-60
2023/12/27 03:23:39;;;;;;;17.30;3.20;;;;;;;2.55;94.47;101408.34;7393785;19;20376;-60
2023/12/27 03:26:06;;;;;;;10.48;2.80;;;;;;;2.55;94.41;101408.34;7394695;19;20381;-61
2023/12/27 03:28:33;;;;;;;10.15;2.50;;;;;;;2.55;94.47;101413.56;7393995;19;20336;-59
2023/12/27 03:31:00;;;;;;;10.87;2.80;;;;;;;2.54;94.52;101417.16;7394772;19;20416;-60
2023/12/27 03:33:27;;;;;;;16.13;2.63;;;;;;;2.54;94.56;101411.91;7394810;19;20357;-60
2023/12/27 03:35:54;;;;;;;12.20;2.65;;;;;;;2.53;94.54;101412.84;7395638;19;20345;-60
2023/12/27 03:38:20;;;;;;;13.15;2.55;;;;;;;2.52;94.52;101403.31;7396511;19;20369;-61
2023/12/27 03:40:47;;;;;;;13.23;2.88;;;;;;;2.52;94.71;101403.31;7395864;19;20887;-59
2023/12/27 03:43:14;;;;;;;12.38;3.28;;;;;;;2.51;95.06;101399.00;7395610;19;20373;-60
2023/12/27 03:45:41;;;;;;;15.13;2.90;;;;;;;2.51;95.03;101406.88;7394166;19;20436;-61
2023/12/27 03:48:08;;;;;;;16.33;2.78;;;;;;;2.50;95.50;101405.22;7392745;19;20863;-58
2023/12/27 03:50:35;;;;;;;13.40;2.85;;;;;;;2.52;95.38;101408.56;7393451;19;20888;-60
2023/12/27 03:53:02;;;;;;;13.95;2.88;;;;;;;2.51;95.59;101401.63;7395349;19;20418;-58
2023/12/27 03:55:29;;;;;;;11.55;2.97;;;;;;;2.50;95.45;101410.44;7394243;19;20358;-60
2023/12/27 03:57:56;;;;;;;15.38;3.08;;;;;;;2.49;95.28;101408.75;7394041;19;20376;-58
2023/12/27 04:00:23;;;;;;;15.18;3.08;;;;;;;2.45;95.59;101410.78;7392537;19;20440;-59
2023/12/27 04:02:50;;;;;;;13.45;2.75;;;;;;;2.44;95.18;101412.56;7393700;19;20368;-61
2023/12/27 04:05:17;;;;;;;19.20;2.83;;;;;;;2.41;95.58;101417.97;7396358;19;20340;-61
2023/12/27 04:07:44;;;;;;;14.40;2.80;;;;;;;2.38;95.50;101407.75;7394385;19;20360;-59
2023/12/27 04:10:10;;;;;;;14.90;2.92;;;;;;;2.35;95.28;101413.16;7396042;19;20657;-58
2023/12/27 04:12:37;;;;;;;13.07;2.95;;;;;;;2.31;95.43;101411.69;7394560;19;20427;-61
2023/12/27 04:15:05;;;;;;;12.73;3.10;;;;;;;2.29;96.58;101408.34;7392570;19;20856;-61
2023/12/27 04:17:32;;;;;;;19.07;3.07;;;;;;;2.26;96.52;101407.72;7394923;19;20733;-60
2023/12/27 04:19:58;;;;;;;15.27;2.95;;;;;;;2.26;96.87;101411.19;7393383;19;20420;-60
2023/12/27 04:22:25;;;;;;;17.70;3.10;;;;;;;2.26;96.79;101403.31;7394474;19;20886;-57
2023/12/27 04:24:52;;;;;;;15.68;2.85;;;;;;;2.25;96.86;101409.47;7393708;19;20351;-59
2023/12/27 04:27:21;;;;;;;11.68;2.88;;;;;;;2.24;96.68;101410.44;7391681;19;20332;-60
2023/12/27 04:29:48;;;;;;;12.30;2.75;;;;;;;2.21;96.47;101401.03;7393062;19;20368;-61
2023/12/27 04:32:15;;;;;;;13.98;2.70;;;;;;;2.22;96.48;101410.53;7392856;19;20348;-61
2023/12/27 04:34:42;;;;;;;15.40;3.08;;;;;;;2.20;96.52;101408.97;7394430;19;20863;-61
2023/12/27 04:37:09;;;;;;;18.35;2.90;;;;;;;2.18;96.46;101408.22;7393750;19;20363;-60
2023/12/27 04:39:36;;;;;;;12.23;3.00;;;;;;;2.16;96.62;101402.25;7393099;19;20333;-61
2023/12/27 04:42:03;;;;;;;13.27;3.00;;;;;;;2.13;96.88;101405.94;7394187;19;20361;-61
2023/12/27 04:44:30;;;;;;;14.10;2.80;;;;;;;2.13;96.98;101407.72;7391591;19;20363;-60
2023/12/27 04:46:57;;;;;;;14.27;2.80;;;;;;;2.12;97.42;101412.09;7391828;19;20385;-60
2023/12/27 04:49:23;;;;;;;12.73;2.90;;;;;;;2.14;97.25;101422.47;7392643;19;20369;-58
2023/12/27 04:51:51;;;;;;;15.50;3.10;;;;;;;2.14;97.95;101439.00;7392591;19;20454;-60
2023/12/27 04:54:18;;;;;;;12.82;3.15;;;;;;;2.18;98.21;101435.25;7390495;19;20424;-60
2023/12/27 04:56:44;;;;;;;12.27;3.03;;;;;;;2.22;98.11;101433.25;7392370;19;20401;-59
2023/12/27 04:59:11;;;;;;;14.90;3.10;;;;;;;2.30;98.33;101440.63;7389517;19;20890;-60
2023/12/27 05:01:38;;;;;;;15.90;3.50;;;;;;;2.36;98.32;101441.03;7390971;19;20671;-59
2023/12/27 05:04:05;;;;;;;12.57;2.90;;;;;;;2.40;98.67;101437.28;7393041;19;20356;-60
2023/12/27 05:06:32;;;;;;;11.18;2.95;;;;;;;2.48;98.48;101433.28;7390076;19;20373;-60
2023/12/27 05:09:03;;;;;;;12.68;3.10;;;;;;;2.54;98.39;101438.09;7392259;19;20729;-60
2023/12/27 05:11:31;;;;;;;18.05;3.28;;;;;;;2.61;98.58;101426.25;7394224;19;20392;-58
2023/12/27 05:13:57;;;;;;;11.27;2.75;;;;;;;2.65;98.54;101430.34;7393721;19;20344;-58
2023/12/27 05:16:24;;;;;;;12.75;2.90;;;;;;;2.71;98.41;101440.41;7390151;19;20734;-60
2023/12/27 05:18:51;;;;;;;13.57;3.00;;;;;;;2.75;98.43;101451.53;7389842;19;21063;-60
2023/12/27 05:21:18;;;;;;;11.70;3.10;;;;;;;2.79;98.21;101450.38;7392408;19;20732;-60
2023/12/27 05:23:45;;;;;;;13.65;2.97;;;;;;;2.81;98.03;101453.72;7391900;19;20397;-60
2023/12/27 05:26:12;;;;;;;14.90;3.05;;;;;;;2.84;97.94;101454.31;7392163;19;20860;-61
2023/12/27 05:28:40;;;;;;;16.40;3.43;;;;;;;2.88;98.00;101438.41;7393188;19;20345;-60
2023/12/27 05:31:07;;;;;;;16.05;3.03;;;;;;;2.90;97.96;101444.38;7391439;19;20381;-61
2023/12/27 05:33:34;;;;;;;13.52;2.95;;;;;;;2.90;98.02;101441.75;7392967;19;20764;-62
2023/12/27 05:36:02;;;;;;;10.18;2.55;;;;;;;2.92;98.12;101448.56;7391580;19;20384;-60
2023/12/27 05:38:28;;;;;;;13.70;2.97;;;;;;;2.94;98.25;101453.72;7391872;19;20428;-60
2023/12/27 05:40:55;;;;;;;11.63;2.75;;;;;;;2.97;98.29;101445.63;7391948;19;20341;-60
2023/12/27 05:43:22;;;;;;;9.73;2.57;;;;;;;2.98;98.47;101439.44;7393634;19;20368;-60
2023/12/27 05:45:49;;;;;;;14.23;3.08;;;;;;;2.99;98.60;101435.88;7392959;19;20352;-60
2023/12/27 05:48:16;;;;;;;12.50;2.97;;;;;;;3.02;98.54;101433.06;7392999;19;20411;-60
2023/12/27 05:50:43;;;;;;;15.77;2.92;;;;;;;3.04;98.34;101441.66;7391467;19;20384;-60
2023/12/27 05:53:10;;;;;;;11.90;2.70;;;;;;;3.04;98.69;101447.72;7390966;19;20378;-60
2023/12/27 05:55:40;;;;;;;11.45;2.78;;;;;;;3.05;98.51;101440.69;7393242;19;20375;-60
2023/12/27 05:58:07;;;;;;;13.20;3.17;;;;;;;3.06;98.69;101434.50;7393392;19;20343;-60
2023/12/27 06:00:34;;;;;;;15.82;3.08;;;;;;;3.10;98.55;101443.81;7387868;19;20385;-60
2023/12/27 06:03:02;;;;;;;11.25;2.45;;;;;;;3.12;98.60;101434.06;7391793;19;20379;-61
2023/12/27 06:05:29;;;;;;;11.57;3.20;;;;;;;3.13;98.47;101435.75;7390663;19;20347;-60
2023/12/27 06:07:55;;;;;;;11.60;2.58;;;;;;;3.17;98.66;101431.97;7390677;19;20352;-60
2023/12/27 06:10:23;;;;;;;11.77;2.67;;;;;;;3.18;98.39;101422.31;7390461;19;20352;-61
2023/12/27 06:12:49;;;;;;;13.52;2.97;;;;;;;3.23;98.53;101428.91;7390609;19;20356;-59
2023/12/27 06:15:16;;;;;;;11.05;2.70;;;;;;;3.23;98.31;101422.81;7391723;19;20358;-60
2023/12/27 06:17:43;;;;;;;12.60;2.83;;;;;;;3.24;98.23;101422.69;7391705;19;20351;-60
2023/12/27 06:20:10;;;;;;;11.55;2.58;;;;;;;3.22;98.26;101424.59;7390637;19;20380;-60
2023/12/27 06:22:37;;;;;;;13.43;2.78;;;;;;;3.19;98.23;101416.97;7392091;19;20360;-60
2023/12/27 06:25:04;;;;;;;12.05;2.75;;;;;;;3.19;98.45;101427.44;7392669;19;20360;-59
2023/12/27 06:27:31;;;;;;;13.75;2.95;;;;;;;3.19;98.20;101429.25;7391690;19;20368;-60
2023/12/27 06:29:58;;;;;;;11.30;2.72;;;;;;;3.16;98.06;101435.50;7389325;19;20364;-61
2023/12/27 06:32:25;;;;;;;12.95;3.10;;;;;;;3.12;97.97;101434.06;7391068;19;20365;-61
2023/12/27 06:34:52;;;;;;;12.73;2.95;;;;;;;3.07;98.08;101436.19;7391500;19;20875;-60
2023/12/27 06:37:19;;;;;;;13.70;2.90;;;;;;;3.02;98.14;101428.63;7390359;19;20742;-61
2023/12/27 06:39:46;;;;;;;15.13;2.95;;;;;;;2.98;98.38;101421.09;7392902;19;20427;-62
2023/12/27 06:42:13;;;;;;;14.38;3.08;;;;;;;2.94;98.13;101425.72;7391910;19;20336;-59
2023/12/27 06:44:40;;;;;;;16.40;3.33;;;;;;;2.88;98.41;101417.44;7390661;19;20435;-61
2023/12/27 06:47:07;;;;;;;16.08;4.00;;;;;;;2.84;98.69;101420.25;7389071;19;20392;-60
2023/12/27 06:49:34;;;;;;;13.93;3.60;;;;;;;2.81;99.04;101423.13;7390973;19;20364;-59
2023/12/27 06:52:01;;;;;;;12.02;3.97;;;;;;;2.76;98.97;101419.97;7392405;19;20360;-59
2023/12/27 06:54:28;;;;;;;13.67;3.70;;;;;;;2.76;98.96;101416.50;7391321;19;20348;-59
2023/12/27 06:56:55;;;;;;;18.63;4.43;;;;;;;2.72;98.98;101410.66;7387757;19;21177;-60
2023/12/27 06:59:21;;;;;;;16.77;3.95;;;;;;;2.68;99.22;101419.69;7391369;19;20364;-60
2023/12/27 07:01:48;;;;;;;18.00;4.10;;;;;;;2.67;99.23;101410.13;7383061;19;20372;-61
2023/12/27 07:04:15;;;;;;;16.40;4.10;;;;;;;2.67;99.50;101420.59;7391191;19;20400;-60
2023/12/27 07:06:42;;;;;;;14.35;3.70;;;;;;;2.66;99.38;101426.78;7388378;19;20348;-61
2023/12/27 07:09:09;;;;;;;12.07;3.70;;;;;;;2.64;99.80;101429.50;7389851;19;20385;-61
2023/12/27 07:11:36;;;;;;;11.32;3.50;;;;;;;2.61;100.00;101423.63;7390398;19;20357;-60
2023/12/27 07:14:03;;;;;;;17.33;3.92;;;;;;;2.62;100.00;101430.56;7391549;19;20371;-58
2023/12/27 07:16:30;;;;;;;12.43;3.60;;;;;;;2.61;99.79;101432.34;7389063;19;20345;-57
2023/12/27 07:18:57;;;;;;;13.70;4.00;;;;;;;2.62;100.00;101441.88;7395531;19;20343;-60
2023/12/27 07:21:24;;;;;;;14.13;3.55;;;;;;;2.62;100.00;101443.66;7397587;19;21114;-61
2023/12/27 07:23:50;;;;;;;12.95;3.47;;;;;;;2.63;99.70;101438.31;7398451;19;20364;-60
2023/12/27 07:26:17;;;;;;;13.27;3.42;;;;;;;2.64;99.86;101447.03;7394934;19;20714;-60
2023/12/27 07:28:44;;;;;;;12.75;3.35;;;;;;;2.64;99.52;101436.53;7396647;19;20695;-61
2023/12/27 07:31:11;;;;;;;13.15;3.30;;;;;;;2.65;99.73;101433.78;7389263;19;20371;-61
2023/12/27 07:33:39;;;;;;;11.13;3.83;;;;;;;2.68;99.45;101432.78;7397439;19;20448;-59
2023/12/27 07:36:07;;;;;;;12.75;3.63;;;;;;;2.70;99.49;101438.75;7396410;19;20476;-60
2023/12/27 07:38:34;;;;;;;14.40;3.50;;;;;;;2.70;99.28;101438.75;7396454;19;20359;-60
2023/12/27 07:41:01;;;;;;;14.10;3.55;;;;;;;2.73;99.28;101442.94;7396835;19;20376;-60
2023/12/27 07:43:28;;;;;;;12.45;3.35;;;;;;;2.73;99.39;101433.28;7394653;19;20876;-58
2023/12/27 07:45:55;;;;;;;11.88;3.00;;;;;;;2.74;99.37;101431.50;7393739;19;20368;-60
2023/12/27 07:48:22;;;;;;;13.25;3.15;;;;;;;2.76;99.25;101417.38;7395192;19;20352;-60
2023/12/27 07:50:50;;;;;;;11.10;3.03;;;;;;;2.77;99.19;101424.25;7393321;19;20372;-61
2023/12/27 07:53:16;;;;;;;12.73;3.80;;;;;;;2.80;99.13;101424.03;7393007;19;20696;-60
2023/12/27 07:55:43;;;;;;;12.68;4.07;;;;;;;2.82;99.12;101421.31;7396154;19;20364;-60
2023/12/27 07:58:10;;;;;;;18.40;4.47;;;;;;;2.85;99.21;101429.00;7396199;19;20381;-61
2023/12/27 08:00:37;;;;;;;14.55;4.28;;;;;;;2.89;99.31;101429.59;7391437;19;20365;-58
2023/12/27 08:03:08;;;;;;;10.70;3.33;;;;;;;2.91;99.03;101430.31;7394562;19;20701;-60
2023/12/27 08:05:35;;;;;;;11.60;3.20;;;;;;;2.91;98.94;101431.19;7393986;19;20446;-61
2023/12/27 08:08:04;;;;;;;13.02;3.30;;;;;;;2.94;98.97;101433.56;7396426;19;20368;-60
2023/12/27 08:10:31;;;;;;;14.18;3.33;;;;;;;2.96;99.05;101431.69;7394196;19;20385;-62
2023/12/27 08:12:58;;;;;;;12.20;3.15;;;;;;;2.99;98.75;101428.84;7394814;19;20368;-60
2023/12/27 08:15:25;;;;;;;13.50;3.28;;;;;;;3.03;98.87;101434.72;7385996;19;20908;-60
2023/12/27 08:17:53;;;;;;;12.88;3.25;;;;;;;3.08;98.87;101429.97;7393775;19;20360;-61
2023/12/27 08:20:20;;;;;;;13.30;3.50;;;;;;;3.15;98.96;101431.22;7393691;19;20372;-60
2023/12/27 08:22:50;;;;;;;12.43;3.55;;;;;;;3.22;98.85;101440.31;7393816;19;20348;-58
2023/12/27 08:25:17;;;;;;;12.52;4.15;;;;;;;3.30;98.91;101425.84;7394019;19;20404;-61
2023/12/27 08:27:44;;;;;;;13.33;4.90;;;;;;;3.39;98.75;101435.66;7393227;19;20461;-60
2023/12/27 08:30:11;;;;;;;14.48;5.88;;;;;;;3.44;98.49;101431.78;7388102;19;20389;-60
2023/12/27 08:32:37;;;;;;;14.20;5.47;;;;;;;3.52;98.45;101431.22;7395352;19;20390;-60
2023/12/27 08:35:05;;;;;;;13.13;4.30;;;;;;;3.60;98.13;101421.00;7394560;19;20372;-60
2023/12/27 08:37:32;;;;;;;12.13;3.40;;;;;;;3.65;98.02;101413.63;7390805;19;20364;-61
2023/12/27 08:39:58;;;;;;;9.10;3.08;;;;;;;3.71;97.48;101414.13;7392982;19;20358;-61
2023/12/27 08:42:25;;;;;;;12.70;3.10;;;;;;;3.72;97.02;101405.31;7394730;19;20392;-59
2023/12/27 08:44:52;;;;;;;11.07;2.67;;;;;;;3.74;96.93;101404.25;7389693;19;20876;-61
2023/12/27 08:47:19;;;;;;;10.93;3.67;;;;;;;3.78;96.52;101399.59;7393451;19;20375;-58
2023/12/27 08:49:45;;;;;;;11.32;2.88;;;;;;;3.80;96.44;101392.47;7392210;19;20352;-60
2023/12/27 08:52:12;;;;;;;6.63;2.57;;;;;;;3.87;96.81;101388.44;7393913;19;20400;-60
2023/12/27 08:54:39;;;;;;;9.68;3.20;;;;;;;3.95;96.86;101396.56;7394145;19;20428;-60
2023/12/27 08:57:06;;;;;;;10.90;3.20;;;;;;;4.03;96.66;101390.75;7389784;19;20361;-61
2023/12/27 08:59:33;;;;;;;12.32;3.47;;;;;;;4.12;96.66;101390.03;7389607;19;20375;-59
2023/12/27 09:02:00;;;;;;;11.00;4.05;;;;;;;4.20;96.54;101392.09;7390575;19;20388;-59
2023/12/27 09:04:27;;;;;;;11.73;4.63;;;;;;;4.28;96.72;101387.09;7391214;19;20429;-60
2023/12/27 09:06:54;;;;;;;31.90;19.87;;;;;;;4.38;96.60;101381.97;7388912;19;20380;-58
2023/12/27 09:09:21;;;;;;;11.70;5.38;;;;;;;4.48;96.70;101382.94;7388226;19;20383;-59
2023/12/27 09:11:48;;;;;;;12.45;4.63;;;;;;;4.62;96.78;101371.38;7392697;19;20364;-59
2023/12/27 09:14:15;;;;;;;10.50;4.65;;;;;;;4.75;96.14;101368.63;7390347;19;20407;-62
2023/12/27 09:16:42;;;;;;;12.82;3.72;;;;;;;4.87;95.81;101367.66;7387332;19;20364;-63
2023/12/27 09:19:09;;;;;;;11.50;3.70;;;;;;;4.97;95.55;101352.81;7391386;19;20360;-63
2023/12/27 09:21:45;;;;;;;11.80;3.20;;;;;;;5.07;95.15;101352.91;7391398;19;21835;-63
2023/12/27 09:24:13;;;;;;;9.23;3.10;;;;;;;5.18;94.92;101354.69;7392372;19;20650;-63
2023/12/27 09:26:40;;;;;;;11.55;2.85;;;;;;;5.25;94.69;101346.19;7392801;19;20353;-63
2023/12/27 09:29:09;;;;;;;8.50;2.60;;;;;;;5.34;94.38;101343.78;7391592;19;20469;-63
2023/12/27 09:31:36;;;;;;;9.52;2.70;;;;;;;5.41;94.13;101340.50;7391109;19;20356;-63
2023/12/27 09:34:03;;;;;;;10.20;2.50;;;;;;;5.52;94.30;101352.78;7389600;19;20364;-64
2023/12/27 09:36:31;;;;;;;11.37;2.80;;;;;;;5.63;93.88;101355.38;7390857;19;20992;-63
2023/12/27 09:38:58;;;;;;;9.35;2.78;;;;;;;5.73;93.91;101351.00;7390735;19;20389;-64
2023/12/27 09:41:26;;;;;;;11.73;4.00;;;;;;;5.84;93.82;101341.38;7389581;19;20389;-63
2023/12/27 09:43:54;;;;;;;11.95;5.28;;;;;;;5.96;93.65;101335.13;7390214;19;20367;-63
2023/12/27 09:46:21;;;;;;;13.07;5.68;;;;;;;6.05;93.04;101339.59;7392240;19;20384;-63
2023/12/27 09:48:50;;;;;;;23.35;9.82;;;;;;;6.13;93.17;101331.88;7390478;19;20392;-63
2023/12/27 09:51:23;;;;;;;26.00;10.07;;;;;;;6.23;93.06;101328.50;7380130;19;20368;-63
2023/12/27 09:53:51;;;;;;;22.38;8.70;;;;;;;6.31;92.68;101324.22;7388650;19;20372;-63
2023/12/27 09:56:22;;;;;;;19.17;5.82;;;;;;;6.38;92.32;101323.72;7382161;19;20882;-62
2023/12/27 09:58:50;;;;;;;11.38;3.25;;;;;;;6.43;92.05;101327.59;7388236;19;20361;-63
2023/12/27 10:01:24;;;;;;;9.88;2.75;;;;;;;6.49;91.77;101320.97;7380091;19;20880;-63
2023/12/27 10:04:10;;;;;;;9.50;2.47;;;;;;;6.55;91.40;101309.06;7378737;19;20401;-64
2023/12/27 10:06:43;;;;;;;7.47;2.50;;;;;;;6.62;90.90;101310.19;7387154;19;20385;-63
2023/12/27 10:09:10;;;;;;;11.10;2.40;;;;;;;6.67;90.71;101307.97;7390434;19;20359;-63
2023/12/27 10:11:43;;;;;;;8.25;2.00;;;;;;;6.74;90.72;101302.03;7387103;19;20344;-62
2023/12/27 10:14:10;;;;;;;8.25;2.40;;;;;;;6.80;90.32;101291.91;7381401;19;20684;-63
2023/12/27 10:16:37;;;;;;;10.18;2.55;;;;;;;6.87;90.48;101288.59;7386474;19;20369;-62
2023/12/27 10:19:05;;;;;;;11.07;2.53;;;;;;;6.92;90.52;101286.38;7387729;19;20428;-63
2023/12/27 10:21:41;;;;;;;9.00;2.67;;;;;;;6.98;90.07;101287.66;7389501;19;20341;-62
2023/12/27 10:24:12;;;;;;;8.38;2.40;;;;;;;7.01;89.78;101287.38;7389432;19;20371;-63
2023/12/27 10:26:39;;;;;;;10.13;2.78;;;;;;;7.04;89.45;101281.00;7389716;19;20348;-62
2023/12/27 10:29:07;;;;;;;7.73;2.73;;;;;;;7.07;88.94;101284.19;7390596;19;20424;-63
2023/12/27 10:31:34;;;;;;;11.32;3.70;;;;;;;7.10;88.87;101288.38;7389894;19;20340;-63
2023/12/27 10:34:03;;;;;;;9.00;2.72;;;;;;;7.14;88.84;101282.69;7389982;19;20349;-62
2023/12/27 10:36:30;;;;;;;9.07;2.35;;;;;;;7.20;88.67;101278.63;7387784;19;20356;-63
2023/12/27 10:39:02;;;;;;;9.15;2.78;;;;;;;7.28;88.49;101276.13;7389918;19;20882;-63
2023/12/27 10:41:32;;;;;;;7.30;2.45;;;;;;;7.37;88.62;101276.28;7389888;19;20919;-63
2023/12/27 10:44:00;;;;;;;9.82;4.15;;;;;;;7.43;88.06;101273.09;7390309;19;20424;-63
2023/12/27 10:46:27;;;;;;;12.07;5.03;;;;;;;7.46;87.61;101265.72;7388755;19;21014;-63
2023/12/27 10:48:58;;;;;;;9.60;3.53;;;;;;;7.50;86.54;101268.91;7390758;19;20364;-63
2023/12/27 10:51:37;;;;;;;10.20;3.30;;;;;;;7.51;86.44;101257.38;7387899;19;20376;-62
2023/12/27 10:54:05;;;;;;;11.73;4.20;;;;;;;7.56;86.29;101252.50;7396150;19;20345;-63
2023/12/27 10:56:37;;;;;;;9.80;4.00;;;;;;;7.61;85.94;101250.28;7396207;19;20404;-63
2023/12/27 10:59:10;;;;;;;8.82;3.60;;;;;;;7.64;85.43;101251.81;7398165;19;20352;-62
2023/12/27 11:01:43;;;;;;;10.87;3.03;;;;;;;7.65;85.39;101235.81;7393895;19;20361;-63
2023/12/27 11:04:11;;;;;;;12.88;3.90;;;;;;;7.68;85.37;101238.16;7396749;19;20368;-63
2023/12/27 11:06:39;;;;;;;11.13;4.00;;;;;;;7.72;85.11;101230.81;7394188;19;20436;-63
2023/12/27 11:09:07;;;;;;;9.20;3.80;;;;;;;7.78;85.15;101237.28;7397874;19;20356;-63
2023/12/27 11:11:39;;;;;;;8.55;3.10;;;;;;;7.76;84.18;101230.38;7397183;19;20360;-63
2023/12/27 11:14:08;;;;;;;9.90;2.80;;;;;;;7.75;84.04;101220.75;7396470;19;21303;-64
2023/12/27 11:16:37;;;;;;;10.40;3.22;;;;;;;7.75;83.92;101223.41;7394548;19;20376;-63
2023/12/27 11:19:08;;;;;;;8.43;2.65;;;;;;;7.73;83.44;101209.50;7396557;19;20340;-63
2023/12/27 11:21:36;;;;;;;11.32;3.13;;;;;;;7.73;83.49;101212.16;7395767;19;20344;-63
2023/12/27 11:24:04;;;;;;;10.35;2.90;;;;;;;7.74;83.63;101207.72;7396797;19;20871;-63
2023/12/27 11:26:36;;;;;;;9.90;3.20;;;;;;;7.72;83.31;101189.38;7397153;19;20724;-63